Time;durP1;ratioP1;P1;durP2;ratioP2;P2;SDS_P1;SDS_P2;PMS_P1;PMS_P2;Temp;Humidity;BMP_temperature;BMP_pressure;BME280_temperature;BME280_humidity;BME280_pressure;Samples;Min_cycle;Max_cycle;Signal;HPM_P1;HPM_P2
2021/07/09 00:01:43;;;;;;;12.45;9.20;;;;;;;23.29;69.08;100558.32;1777577;79;26032;-70
2021/07/09 00:04:11;;;;;;;13.58;9.48;;;;;;;23.29;69.14;100547.85;1714990;82;26052;-73
2021/07/09 00:06:40;;;;;;;19.12;9.90;;;;;;;23.28;69.17;100551.81;1688617;83;27332;-71
2021/07/09 00:09:09;;;;;;;15.00;9.45;;;;;;;23.26;69.47;100549.44;1612491;86;26654;-74
2021/07/09 00:11:38;;;;;;;10.95;9.75;;;;;;;23.25;69.31;100541.55;1628682;85;25842;-75
2021/07/09 00:14:09;;;;;;;14.23;9.48;;;;;;;23.23;69.27;100528.73;1619545;85;25936;-82
2021/07/09 00:16:38;;;;;;;11.35;10.15;;;;;;;23.23;69.34;100526.75;1612021;85;25886;-73
2021/07/09 00:19:05;;;;;;;12.93;9.38;;;;;;;23.20;69.29;100519.85;1617062;87;27934;-69
2021/07/09 00:21:34;;;;;;;12.40;9.58;;;;;;;23.18;69.59;100521.62;1631529;85;25724;-68
2021/07/09 00:24:03;;;;;;;11.25;9.50;;;;;;;23.18;69.48;100516.70;1647162;85;26409;-70
2021/07/09 00:26:31;;;;;;;13.98;10.53;;;;;;;23.16;69.51;100510.19;1618446;86;25928;-73
2021/07/09 00:28:59;;;;;;;11.40;9.80;;;;;;;23.15;69.64;100501.70;1632521;86;26707;-71
2021/07/09 00:31:29;;;;;;;11.88;9.68;;;;;;;23.12;69.81;100491.44;1618635;86;27331;-67
2021/07/09 00:33:57;;;;;;;10.82;9.73;;;;;;;23.10;69.75;100489.09;1604288;87;25837;-68
2021/07/09 00:36:25;;;;;;;12.03;9.33;;;;;;;23.09;69.70;100486.12;1621541;87;25998;-67
2021/07/09 00:38:52;;;;;;;11.08;9.95;;;;;;;23.07;69.97;100476.08;1618901;87;26062;-66
2021/07/09 00:41:20;;;;;;;11.00;9.53;;;;;;;23.05;69.85;100474.84;1619053;87;25774;-68
2021/07/09 00:43:48;;;;;;;10.18;8.90;;;;;;;23.04;70.03;100473.28;1605244;86;27637;-72
2021/07/09 00:46:14;;;;;;;15.15;9.45;;;;;;;23.02;69.96;100472.28;1582106;88;25993;-69
2021/07/09 00:48:41;;;;;;;11.73;9.80;;;;;;;23.01;70.00;100472.08;1592780;87;25912;-71
2021/07/09 00:51:11;;;;;;;11.50;9.10;;;;;;;22.98;70.08;100458.28;1599051;86;26023;-78
2021/07/09 00:53:38;;;;;;;15.08;9.18;;;;;;;22.97;70.05;100454.74;1614599;86;25792;-79
2021/07/09 05:30:16;;;;;;;9.98;8.95;;;;;;;25.13;67.82;100358.41;1702697;79;68733;-63
2021/07/09 05:32:44;;;;;;;10.65;8.90;;;;;;;25.24;67.73;100358.31;1721288;80;25833;-64
2021/07/09 05:35:12;;;;;;;10.13;8.58;;;;;;;25.34;67.70;100352.53;1781278;79;25363;-64
2021/07/09 05:37:39;;;;;;;14.90;9.23;;;;;;;25.44;67.39;100348.10;1777985;79;27354;-64
2021/07/09 05:40:07;;;;;;;16.40;9.65;;;;;;;25.50;67.22;100345.84;1772191;78;26477;-65
2021/07/09 05:42:35;;;;;;;14.45;9.68;;;;;;;25.57;66.92;100351.12;1771911;79;25657;-64
2021/07/09 05:45:03;;;;;;;10.72;9.48;;;;;;;25.57;66.89;100341.44;1774090;78;27731;-65
2021/07/09 05:47:30;;;;;;;12.95;8.95;;;;;;;25.65;67.12;100350.64;1776234;79;25862;-65
2021/07/09 05:49:57;;;;;;;12.55;9.13;;;;;;;25.73;66.81;100349.37;1777485;79;26909;-65
2021/07/09 05:52:24;;;;;;;11.38;8.50;;;;;;;25.75;66.35;100338.50;1753455;79;25865;-65
2021/07/09 05:54:50;;;;;;;13.45;8.93;;;;;;;25.72;66.24;100336.72;1770193;78;25816;-65
2021/07/09 05:57:17;;;;;;;11.20;8.78;;;;;;;25.79;66.32;100329.54;1773326;78;26028;-65
2021/07/09 05:59:44;;;;;;;10.13;9.03;;;;;;;25.80;66.11;100326.36;1771286;79;25614;-66
2021/07/09 06:02:12;;;;;;;14.20;9.23;;;;;;;25.85;66.29;100336.21;1766846;79;26531;-66
2021/07/09 06:04:38;;;;;;;12.98;9.35;;;;;;;25.90;65.88;100327.45;1782046;79;25794;-66
2021/07/09 06:07:05;;;;;;;10.65;8.55;;;;;;;25.97;66.39;100337.70;1752466;79;25840;-66
2021/07/09 06:09:32;;;;;;;14.65;8.98;;;;;;;25.94;65.23;100350.95;1778951;79;25931;-66
2021/07/09 06:12:00;;;;;;;9.93;7.65;;;;;;;25.90;65.32;100351.00;1775973;79;25815;-67
2021/07/09 06:14:26;;;;;;;16.15;8.88;;;;;;;25.89;65.47;100350.19;1769515;79;25958;-68
2021/07/09 06:16:53;;;;;;;10.88;8.25;;;;;;;25.96;65.86;100349.36;1778550;79;25582;-67
2021/07/09 06:19:19;;;;;;;14.33;8.93;;;;;;;26.03;65.74;100362.34;1760815;79;25844;-67
2021/07/09 06:21:46;;;;;;;11.48;8.03;;;;;;;26.05;65.47;100352.44;1776837;78;26117;-67
2021/07/09 06:24:12;;;;;;;11.95;8.65;;;;;;;26.04;64.99;100367.48;1779339;78;25858;-67
2021/07/09 06:26:41;;;;;;;12.23;8.15;;;;;;;26.02;64.96;100371.27;1767265;79;28003;-67
2021/07/09 06:29:09;;;;;;;10.08;8.45;;;;;;;26.04;65.42;100368.86;1771055;78;25725;-68
2021/07/09 06:31:36;;;;;;;9.60;8.45;;;;;;;26.14;65.53;100376.88;1774679;79;25867;-68
2021/07/09 06:34:03;;;;;;;9.30;8.28;;;;;;;26.21;65.26;100369.85;1778153;79;25925;-69
2021/07/09 06:36:30;;;;;;;10.40;8.33;;;;;;;26.26;65.30;100368.63;1770595;78;25819;-69
2021/07/09 06:38:57;;;;;;;9.70;8.03;;;;;;;26.31;65.25;100370.16;1766454;79;27354;-69
2021/07/09 06:41:23;;;;;;;12.03;8.93;;;;;;;26.39;65.29;100373.80;1781875;79;25635;-69
2021/07/09 06:43:50;;;;;;;10.53;8.20;;;;;;;26.42;64.75;100372.95;1775892;79;25691;-70
2021/07/09 06:46:16;;;;;;;13.05;8.45;;;;;;;26.46;64.93;100385.41;1771867;79;26631;-70
2021/07/09 06:48:44;;;;;;;11.38;8.23;;;;;;;26.55;64.68;100387.67;1775499;79;25835;-72
2021/07/09 06:51:11;;;;;;;13.43;9.13;;;;;;;26.59;64.71;100388.39;1776293;79;27323;-71
2021/07/09 06:53:39;;;;;;;14.47;8.50;;;;;;;26.66;64.46;100381.39;1772704;79;25693;-71
2021/07/09 06:56:06;;;;;;;16.15;9.25;;;;;;;26.72;64.06;100382.50;1764849;78;25910;-73
2021/07/09 06:58:33;;;;;;;13.25;8.58;;;;;;;26.81;64.15;100383.37;1776535;78;26010;-72
2021/07/09 07:01:00;;;;;;;12.95;7.85;;;;;;;26.89;64.28;100380.67;1775896;79;25532;-72
2021/07/09 07:03:26;;;;;;;14.40;8.85;;;;;;;27.06;64.29;100385.00;1773080;79;27276;-73
2021/07/09 07:05:53;;;;;;;12.43;9.45;;;;;;;27.23;63.80;100381.77;1773108;79;26439;-73
2021/07/09 07:08:23;;;;;;;12.55;9.38;;;;;;;27.37;63.51;100388.48;1774430;79;25395;-73
2021/07/09 07:10:51;;;;;;;12.68;9.38;;;;;;;27.50;63.27;100396.40;1764904;80;25955;-74
2021/07/09 07:13:25;;;;;;;13.70;8.90;;;;;;;27.64;63.00;100389.03;1760514;79;25824;-74
2021/07/09 07:15:52;;;;;;;16.85;9.33;;;;;;;27.79;62.82;100397.87;1764174;79;27423;-74
2021/07/09 07:18:18;;;;;;;15.38;9.48;;;;;;;27.95;62.56;100402.17;1771025;80;25825;-75
2021/07/09 07:20:47;;;;;;;14.10;9.60;;;;;;;27.93;61.10;100405.38;1772418;79;25727;-75
2021/07/09 07:23:17;;;;;;;15.80;8.75;;;;;;;27.84;61.29;100396.80;1764446;79;25932;-75
2021/07/09 07:25:46;;;;;;;10.50;9.30;;;;;;;27.91;61.65;100391.09;1770464;79;25845;-76
2021/07/09 07:28:13;;;;;;;14.25;9.83;;;;;;;28.08;61.65;100396.78;1772236;79;27370;-72
2021/07/09 07:30:40;;;;;;;11.57;9.08;;;;;;;28.26;61.89;100395.80;1771317;79;26168;-71
2021/07/09 07:33:09;;;;;;;14.90;9.23;;;;;;;28.49;62.10;100386.59;1764643;80;26606;-71
2021/07/09 07:35:37;;;;;;;;;;;;;;;28.81;61.61;100393.48;1771950;79;25981;-72
2021/07/09 07:38:06;;;;;;;14.75;9.03;;;;;;;29.03;60.45;100404.09;1771005;80;25794;-72
2021/07/09 07:40:34;;;;;;;12.82;9.85;;;;;;;28.94;58.86;100403.92;1773623;79;27301;-72
2021/07/09 07:43:00;;;;;;;13.32;9.83;;;;;;;28.80;59.31;100401.64;1771147;79;25804;-72
2021/07/09 07:45:28;;;;;;;10.55;9.20;;;;;;;28.78;59.20;100399.13;1784653;79;25779;-72
2021/07/09 07:47:54;;;;;;;11.73;9.43;;;;;;;28.72;59.04;100397.44;1756454;79;26438;-71
2021/07/09 07:50:25;;;;;;;11.50;9.30;;;;;;;28.79;59.62;100410.42;1772703;78;25671;-71
2021/07/09 07:52:52;;;;;;;11.15;9.25;;;;;;;28.91;58.97;100410.36;1764257;79;27077;-72
2021/07/09 07:55:19;;;;;;;14.58;10.20;;;;;;;28.94;58.76;100411.66;1776072;79;25812;-72
2021/07/09 07:57:45;;;;;;;12.30;9.45;;;;;;;28.98;59.19;100398.46;1787677;78;25710;-72
2021/07/09 08:00:14;;;;;;;12.07;10.10;;;;;;;29.19;59.09;100399.20;1782442;79;26473;-72
2021/07/09 08:02:41;;;;;;;13.28;10.25;;;;;;;29.41;58.31;100402.23;1745906;79;25819;-72
2021/07/09 08:05:10;;;;;;;13.15;10.38;;;;;;;29.50;57.81;100398.83;1779955;79;27384;-71
2021/07/09 08:07:38;;;;;;;11.80;10.00;;;;;;;29.65;57.84;100399.25;1772215;79;25627;-72
2021/07/09 08:10:07;;;;;;;14.55;9.98;;;;;;;29.81;57.35;100396.44;1781295;79;25986;-72
2021/07/09 08:12:33;;;;;;;12.82;10.25;;;;;;;29.93;57.62;100391.55;1782995;79;25925;-73
2021/07/09 08:15:00;;;;;;;14.65;10.28;;;;;;;30.08;57.58;100389.75;1781298;79;25740;-73
2021/07/09 08:17:27;;;;;;;13.60;10.40;;;;;;;30.22;57.09;100393.52;1763721;79;27356;-74
2021/07/09 08:19:54;;;;;;;20.02;10.58;;;;;;;30.31;56.20;100390.88;1774123;79;26038;-74
2021/07/09 08:22:22;;;;;;;20.40;10.38;;;;;;;30.43;56.95;100385.80;1776145;79;25776;-73
2021/07/09 08:24:49;;;;;;;12.45;10.43;;;;;;;30.61;56.71;100390.20;1765670;78;25969;-74
2021/07/09 08:27:17;;;;;;;12.53;10.08;;;;;;;30.86;56.01;100380.29;1769705;79;25862;-73
2021/07/09 08:29:44;;;;;;;12.40;10.63;;;;;;;30.99;55.22;100391.47;1777801;79;27997;-72
2021/07/09 08:32:10;;;;;;;16.48;9.75;;;;;;;30.98;54.87;100392.72;1772046;79;25808;-74
2021/07/09 08:34:37;;;;;;;12.82;10.03;;;;;;;31.04;54.92;100389.51;1773649;79;25918;-73
2021/07/09 08:37:04;;;;;;;14.87;9.95;;;;;;;30.98;54.19;100387.13;1771707;79;25922;-73
2021/07/09 08:39:31;;;;;;;14.23;10.85;;;;;;;30.87;54.07;100381.84;1744242;79;25715;-72
2021/07/09 08:41:57;;;;;;;12.33;9.90;;;;;;;30.86;54.91;100378.89;1779445;79;27386;-72
2021/07/09 08:44:24;;;;;;;15.13;10.48;;;;;;;30.96;55.05;100376.41;1779501;79;25732;-73
2021/07/09 08:46:54;;;;;;;17.55;11.48;;;;;;;31.11;55.31;100369.75;1771645;79;26468;-73
2021/07/09 08:49:22;;;;;;;13.83;10.00;;;;;;;31.39;55.54;100361.01;1776712;79;26017;-72
2021/07/09 08:51:49;;;;;;;15.43;10.90;;;;;;;31.75;54.66;100359.78;1762751;80;25984;-73
2021/07/09 08:54:20;;;;;;;13.90;10.32;;;;;;;31.92;53.33;100358.98;1772774;79;27326;-71
2021/07/09 08:56:48;;;;;;;16.87;10.72;;;;;;;32.04;53.05;100358.75;1780075;79;26450;-72
2021/07/09 08:59:14;;;;;;;12.33;11.12;;;;;;;32.18;52.88;100357.47;1771361;79;32781;-74
2021/07/09 09:02:03;;;;;;;16.25;11.08;;;;;;;32.34;51.67;100357.25;1774744;79;25990;-73
2021/07/09 09:04:32;;;;;;;11.53;9.35;;;;;;;32.29;51.12;100353.66;1773358;79;26380;-73
2021/07/09 09:07:12;;;;;;;12.07;10.10;;;;;;;32.27;51.46;100346.34;1762873;80;27344;-73
2021/07/09 09:09:41;;;;;;;16.20;11.45;;;;;;;32.22;50.90;100344.77;1755256;80;25747;-73
2021/07/09 09:12:16;;;;;;;16.95;11.73;;;;;;;31.94;50.50;100341.75;1769949;80;25778;-72
2021/07/09 09:14:47;;;;;;;17.15;9.90;;;;;;;31.98;52.16;100341.79;1697483;82;26324;-73
2021/07/09 09:17:35;;;;;;;11.53;9.58;;;;;;;32.43;52.49;100343.16;1715312;82;25558;-72
2021/07/09 09:20:15;;;;;;;14.90;10.75;;;;;;;32.84;52.54;100356.56;1710461;82;27369;-72
2021/07/09 09:22:53;;;;;;;11.83;10.20;;;;;;;33.32;51.25;100355.59;1744707;80;25726;-71
2021/07/09 09:25:26;;;;;;;22.82;11.15;;;;;;;33.81;51.13;100359.53;1770535;79;25985;-72
2021/07/09 09:28:04;;;;;;;16.80;11.18;;;;;;;34.20;49.64;100361.98;1766302;79;25916;-72
2021/07/09 09:30:33;;;;;;;15.03;10.08;;;;;;;34.24;48.97;100349.98;1753054;80;25905;-72
2021/07/09 09:33:11;;;;;;;12.20;9.80;;;;;;;34.19;48.28;100349.79;1779668;78;25938;-72
2021/07/09 09:35:55;;;;;;;13.78;10.03;;;;;;;34.21;48.27;100341.09;1779052;78;25861;-70
2021/07/09 09:38:28;;;;;;;14.07;10.93;;;;;;;34.44;48.98;100347.25;1779174;78;25921;-71
2021/07/09 09:40:58;;;;;;;15.55;9.93;;;;;;;34.88;49.13;100348.17;1767338;80;26064;-72
2021/07/09 09:43:30;;;;;;;10.98;9.38;;;;;;;35.36;48.64;100337.57;1741167;80;25868;-72
2021/07/09 09:46:03;;;;;;;11.30;9.18;;;;;;;35.66;48.15;100334.83;1778586;78;27372;-75
2021/07/09 09:48:44;;;;;;;13.78;10.32;;;;;;;36.04;47.32;100336.04;1754495;80;25823;-71
2021/07/09 09:51:40;;;;;;;11.12;9.28;;;;;;;36.27;46.70;100335.83;1775099;79;25845;-78
2021/07/09 09:54:07;;;;;;;11.18;9.38;;;;;;;36.70;46.06;100332.66;1773135;79;27068;-81
2021/07/09 09:56:46;;;;;;;12.20;10.75;;;;;;;37.01;45.31;100328.58;1779773;78;25716;-73
2021/07/09 09:59:22;;;;;;;13.70;10.20;;;;;;;37.48;44.87;100329.31;1774837;79;27384;-75
2021/07/09 10:01:57;;;;;;;10.82;9.78;;;;;;;38.00;44.10;100325.08;1774702;79;25820;-76
2021/07/09 10:04:26;;;;;;;12.73;10.05;;;;;;;38.13;42.38;100325.36;1768988;79;26625;-77
2021/07/09 10:06:54;;;;;;;11.55;10.23;;;;;;;37.86;41.78;100325.98;1780467;79;26106;-77
2021/07/09 10:09:23;;;;;;;13.70;10.75;;;;;;;37.86;42.20;100318.94;1770480;79;25867;-75
2021/07/09 10:11:51;;;;;;;15.18;11.10;;;;;;;37.92;41.77;100319.74;1772792;78;27356;-70
2021/07/09 10:14:21;;;;;;;11.95;10.55;;;;;;;37.83;40.77;100317.11;1772271;79;25869;-71
2021/07/09 10:16:51;;;;;;;11.18;9.88;;;;;;;37.62;40.68;100312.14;1782546;79;25698;-71
2021/07/09 10:19:42;;;;;;;14.53;10.68;;;;;;;37.33;40.51;100311.06;1780235;79;26654;-70
2021/07/09 10:22:10;;;;;;;11.53;10.15;;;;;;;37.02;40.57;100304.02;1768280;78;25837;-70
2021/07/09 10:24:43;;;;;;;12.40;11.05;;;;;;;36.79;40.83;100305.75;1775550;79;27282;-70
2021/07/09 10:27:13;;;;;;;16.82;11.38;;;;;;;36.56;40.83;100311.05;1768979;79;26531;-70
2021/07/09 10:29:45;;;;;;;16.32;11.05;;;;;;;36.32;41.34;100313.22;1748244;80;25657;-70
2021/07/09 10:32:12;;;;;;;11.88;10.53;;;;;;;36.12;41.77;100314.69;1765123;79;26292;-69
2021/07/09 10:34:48;;;;;;;13.05;10.55;;;;;;;35.96;42.02;100313.77;1769985;80;25821;-69
2021/07/09 10:37:21;;;;;;;12.75;11.03;;;;;;;35.79;42.08;100321.91;1778219;79;27340;-71
2021/07/09 10:40:03;;;;;;;12.05;11.00;;;;;;;35.58;42.26;100323.81;1777199;79;25684;-72
2021/07/09 10:42:40;;;;;;;12.73;11.53;;;;;;;35.31;42.24;100330.57;1774801;79;25743;-70
2021/07/09 10:45:20;;;;;;;11.68;10.58;;;;;;;34.91;42.57;100344.41;1768890;79;26084;-72
2021/07/09 10:48:08;;;;;;;12.55;11.22;;;;;;;34.66;43.34;100332.95;1780391;79;25822;-73
2021/07/09 10:50:45;;;;;;;15.23;11.55;;;;;;;34.52;43.79;100333.03;1774042;79;27328;-72
2021/07/09 10:53:18;;;;;;;13.03;10.65;;;;;;;34.40;44.08;100324.96;1776828;79;25818;-71
2021/07/09 10:56:08;;;;;;;14.98;10.95;;;;;;;34.38;44.57;100330.28;1779779;79;25851;-71
2021/07/09 10:58:47;;;;;;;14.73;11.00;;;;;;;34.25;44.61;100318.47;1776997;79;25958;-72
2021/07/09 11:01:31;;;;;;;12.58;10.93;;;;;;;34.12;44.62;100317.86;1773402;79;25547;-71
2021/07/09 11:04:14;;;;;;;16.73;11.12;;;;;;;33.90;44.95;100318.83;1775247;79;27396;-71
2021/07/09 11:06:42;;;;;;;12.03;10.82;;;;;;;33.86;45.36;100314.02;1758420;80;26806;-71
2021/07/09 11:09:14;;;;;;;12.53;10.95;;;;;;;33.93;45.47;100315.73;1761735;79;25642;-71
2021/07/09 11:11:49;;;;;;;15.65;10.82;;;;;;;34.06;45.81;100309.31;1758073;80;25937;-70
2021/07/09 11:14:37;;;;;;;11.28;10.10;;;;;;;34.25;46.13;100304.44;1764512;79;26472;-71
2021/07/09 11:17:21;;;;;;;12.98;11.03;;;;;;;34.51;45.80;100304.78;1769153;80;27304;-72
2021/07/09 11:19:49;;;;;;;11.93;10.72;;;;;;;34.48;44.97;100298.74;1693664;82;25803;-72
2021/07/09 11:22:17;;;;;;;13.62;10.58;;;;;;;34.48;44.97;100298.74;1770408;79;25852;-72
2021/07/09 11:24:57;;;;;;;14.40;10.65;;;;;;;34.40;45.00;100310.16;1759852;79;26083;-73
2021/07/09 11:27:16;;;;;;;17.27;10.40;;;;;;;34.40;45.00;100310.16;1771915;79;25941;-72
2021/07/09 11:29:46;;;;;;;9.98;9.03;;;;;;;34.54;45.89;100291.20;1778894;79;27279;-72
2021/07/09 11:32:21;;;;;;;11.48;9.70;;;;;;;35.50;45.15;100279.80;1779309;78;25776;-71
2021/07/09 11:34:56;;;;;;;11.20;10.10;;;;;;;35.50;45.15;100279.80;1769249;79;25772;-71
2021/07/09 11:37:30;;;;;;;15.03;10.25;;;;;;;36.09;44.63;100277.66;1778802;79;26037;-72
2021/07/09 11:39:59;;;;;;;12.10;9.80;;;;;;;36.51;43.61;100275.13;1784729;78;25660;-72
2021/07/09 11:42:30;;;;;;;11.45;10.30;;;;;;;36.70;41.15;100273.50;1764112;80;27351;-72
2021/07/09 11:45:07;;;;;;;12.55;10.10;;;;;;;36.54;41.15;100271.34;1771937;79;25857;-71
2021/07/09 11:47:40;;;;;;;11.78;9.98;;;;;;;36.46;40.88;100269.55;1774279;79;25831;-71
2021/07/09 11:50:19;;;;;;;12.55;10.08;;;;;;;36.33;40.75;100256.42;1779636;78;25964;-71
2021/07/09 11:52:53;;;;;;;12.25;9.70;;;;;;;36.45;40.92;100262.36;1772346;79;25766;-71
2021/07/09 11:55:30;;;;;;;11.45;9.25;;;;;;;36.58;40.88;100250.77;1773463;79;27377;-71
2021/07/09 11:58:05;;;;;;;10.63;9.03;;;;;;;36.79;40.87;100254.39;1766344;80;25743;-72
2021/07/09 12:00:32;;;;;;;12.47;9.25;;;;;;;36.97;40.39;100250.52;1768737;80;25863;-69
2021/07/09 12:02:58;;;;;;;10.68;9.15;;;;;;;37.13;39.70;100247.75;1767237;79;25769;-69
2021/07/09 12:05:25;;;;;;;11.40;9.43;;;;;;;37.21;39.49;100243.91;1774365;79;26285;-69
2021/07/09 12:07:54;;;;;;;10.48;9.00;;;;;;;37.38;40.23;100251.13;1742842;79;27382;-69
2021/07/09 12:10:30;;;;;;;10.63;9.30;;;;;;;37.70;39.63;100242.09;1772312;80;25636;-70
2021/07/09 12:12:59;;;;;;;12.73;9.10;;;;;;;37.90;38.81;100251.73;1763500;79;25463;-69
2021/07/09 12:15:32;;;;;;;9.88;8.93;;;;;;;37.88;37.92;100235.30;1768311;80;25983;-69
2021/07/09 12:18:09;;;;;;;9.88;8.88;;;;;;;37.80;37.96;100244.11;1750444;79;25786;-70
2021/07/09 12:20:43;;;;;;;8.90;8.00;;;;;;;37.85;37.96;100244.80;1772613;79;27969;-69
2021/07/09 12:23:15;;;;;;;10.48;8.03;;;;;;;37.69;37.31;100241.19;1763379;79;25976;-69
2021/07/09 12:25:55;;;;;;;9.60;8.45;;;;;;;37.50;36.76;100231.62;1775143;79;25766;-68
2021/07/09 12:28:30;;;;;;;12.15;8.40;;;;;;;37.38;36.95;100239.84;1769103;80;25992;-69
2021/07/09 12:30:59;;;;;;;9.68;7.80;;;;;;;37.46;37.34;100235.31;1770118;79;26553;-69
2021/07/09 12:33:33;;;;;;;8.73;8.05;;;;;;;37.56;36.95;100232.46;1758967;79;27342;-69
2021/07/09 12:36:02;;;;;;;9.05;8.15;;;;;;;37.50;36.88;100228.80;1780723;79;25917;-67
2021/07/09 12:38:32;;;;;;;8.73;7.83;;;;;;;37.56;36.59;100224.62;1778034;78;25779;-70
2021/07/09 12:41:06;;;;;;;8.55;7.70;;;;;;;37.59;36.72;100208.75;1776257;78;25991;-70
2021/07/09 12:43:52;;;;;;;13.28;7.67;;;;;;;37.47;36.69;100214.93;1776886;79;26195;-69
2021/07/09 12:46:23;;;;;;;9.10;8.33;;;;;;;37.26;36.46;100217.05;1770424;78;27911;-69
2021/07/09 12:49:05;;;;;;;10.50;8.00;;;;;;;36.95;36.61;100217.05;1777711;79;27247;-69
2021/07/09 12:51:42;;;;;;;9.23;8.05;;;;;;;36.69;36.99;100209.92;1774127;79;26439;-69
2021/07/09 12:54:15;;;;;;;8.63;7.83;;;;;;;36.48;37.47;100208.52;1750692;79;26956;-68
2021/07/09 12:57:04;;;;;;;9.58;8.20;;;;;;;36.44;38.09;100203.73;1743846;80;25807;-61
2021/07/09 12:59:31;;;;;;;8.20;7.50;;;;;;;36.47;38.20;100202.73;1754301;79;27484;-62
2021/07/09 13:02:06;;;;;;;9.00;8.20;;;;;;;36.16;37.89;100194.86;1777970;79;25664;-63
2021/07/09 13:04:36;;;;;;;10.25;7.90;;;;;;;35.75;37.79;100184.91;1770798;78;25843;-62
2021/07/09 13:07:15;;;;;;;8.65;7.75;;;;;;;35.41;39.30;100178.69;1776106;79;25964;-63
2021/07/09 13:09:45;;;;;;;10.28;7.97;;;;;;;35.41;39.30;100178.69;1771514;79;25710;-63
2021/07/09 13:12:19;;;;;;;9.68;8.53;;;;;;;35.44;39.75;100174.27;1784775;78;27978;-63
2021/07/09 13:15:02;;;;;;;9.95;8.35;;;;;;;35.52;40.01;100164.19;1773749;79;25837;-63
2021/07/09 13:17:28;;;;;;;12.58;8.65;;;;;;;35.65;39.80;100154.67;1768194;79;25779;-62
2021/07/09 13:20:11;;;;;;;14.13;8.60;;;;;;;35.82;39.53;100150.74;1781376;79;26635;-63
2021/07/09 13:22:48;;;;;;;8.60;7.70;;;;;;;35.86;39.84;100154.91;1782786;79;25692;-70
2021/07/09 13:25:20;;;;;;;10.65;7.92;;;;;;;36.03;39.50;100142.50;1765698;79;27455;-71
2021/07/09 13:28:08;;;;;;;9.33;8.35;;;;;;;36.15;39.30;100155.30;1762928;79;26425;-71
2021/07/09 13:30:35;;;;;;;8.25;7.50;;;;;;;36.17;39.39;100154.97;1772116;78;25672;-70
2021/07/09 13:33:12;;;;;;;10.10;8.30;;;;;;;36.16;38.92;100149.83;1771551;79;25926;-71
2021/07/09 13:35:45;;;;;;;9.78;8.78;;;;;;;36.08;38.30;100137.58;1779891;79;25838;-70
2021/07/09 13:38:12;;;;;;;8.40;7.60;;;;;;;35.92;37.95;100124.67;1765841;80;28652;-70
2021/07/09 13:40:40;;;;;;;9.88;8.80;;;;;;;35.80;38.48;100119.52;1778440;79;25324;-71
2021/07/09 13:43:08;;;;;;;12.98;8.10;;;;;;;35.67;38.71;100112.15;1776400;79;26037;-69
2021/07/09 13:45:37;;;;;;;11.10;8.10;;;;;;;35.66;38.43;100101.38;1762330;79;26061;-68
2021/07/09 13:48:05;;;;;;;9.50;7.97;;;;;;;35.66;38.35;100106.38;1766429;79;25485;-68
2021/07/09 13:50:32;;;;;;;11.93;7.67;;;;;;;35.67;38.49;100091.05;1773221;79;27230;-69
2021/07/09 13:52:59;;;;;;;11.73;8.30;;;;;;;35.79;38.70;100089.82;1780488;79;25873;-68
2021/07/09 13:55:26;;;;;;;11.50;8.20;;;;;;;35.88;38.40;100077.05;1762865;79;25735;-66
2021/07/09 13:57:53;;;;;;;9.30;7.83;;;;;;;35.96;38.31;100078.20;1775171;79;25878;-63
2021/07/09 14:00:20;;;;;;;9.33;8.43;;;;;;;35.87;38.04;100081.89;1771892;79;25841;-65
2021/07/09 14:02:46;;;;;;;8.68;7.90;;;;;;;35.80;37.86;100082.30;1771425;79;27295;-65
2021/07/09 14:05:13;;;;;;;9.65;7.80;;;;;;;35.74;37.94;100080.67;1768399;79;25596;-64
2021/07/09 14:07:40;;;;;;;10.98;7.58;;;;;;;35.66;37.62;100092.95;1775238;79;25857;-65
2021/07/09 14:10:09;;;;;;;8.30;7.42;;;;;;;35.51;37.37;100088.75;1759228;76;26142;-65
2021/07/09 14:12:35;;;;;;;13.18;7.97;;;;;;;35.35;37.45;100095.03;1767745;79;25821;-65
2021/07/09 14:15:04;;;;;;;9.60;8.05;;;;;;;35.34;37.67;100097.69;1747814;78;27421;-65
2021/07/09 14:17:31;;;;;;;11.97;8.73;;;;;;;35.29;37.53;100097.59;1725514;79;25931;-69
2021/07/09 14:19:57;;;;;;;10.93;8.15;;;;;;;35.24;37.83;100091.25;1758164;79;25821;-68
2021/07/09 14:22:24;;;;;;;9.05;8.05;;;;;;;35.31;37.80;100089.45;1752013;79;26167;-68
2021/07/09 14:24:50;;;;;;;8.70;7.85;;;;;;;35.30;37.48;100094.95;1763573;79;25758;-68
2021/07/09 14:27:17;;;;;;;9.38;8.28;;;;;;;35.13;36.96;100108.69;1753078;79;27374;-68
2021/07/09 14:29:43;;;;;;;10.05;8.33;;;;;;;35.13;36.96;100108.69;1767312;79;25828;-69
2021/07/09 14:32:10;;;;;;;11.22;7.67;;;;;;;34.91;37.71;100091.56;1755736;79;25487;-68
2021/07/09 14:34:36;;;;;;;8.80;7.85;;;;;;;34.84;37.79;100086.33;1752160;79;28175;-67
2021/07/09 14:37:03;;;;;;;8.83;7.92;;;;;;;34.76;38.11;100076.73;1774601;79;25849;-69
2021/07/09 14:39:30;;;;;;;11.08;8.20;;;;;;;34.67;38.08;100060.71;1740694;80;27326;-68
2021/07/09 14:41:56;;;;;;;12.07;8.53;;;;;;;34.64;38.54;100056.69;1756841;79;25796;-68
2021/07/09 14:44:22;;;;;;;11.60;8.48;;;;;;;34.58;38.70;100049.55;1764328;79;25782;-68
2021/07/09 14:46:49;;;;;;;9.35;8.38;;;;;;;34.64;38.88;100053.88;1769910;79;25874;-68
2021/07/09 14:49:17;;;;;;;9.58;8.58;;;;;;;34.52;38.70;100052.89;1766776;79;25873;-68
2021/07/09 14:51:43;;;;;;;9.40;8.50;;;;;;;34.33;38.73;100065.67;1753806;79;27373;-68
2021/07/09 14:54:10;;;;;;;10.43;8.83;;;;;;;34.16;39.03;100055.48;1772453;78;25854;-68
2021/07/09 14:56:36;;;;;;;16.93;9.08;;;;;;;34.04;39.55;100050.89;1781877;78;25474;-68
2021/07/09 14:59:05;;;;;;;9.98;8.20;;;;;;;33.90;39.49;100053.77;1751844;79;25895;-68
2021/07/09 15:01:32;;;;;;;14.05;8.58;;;;;;;33.72;39.69;100075.69;1755931;79;25868;-68
2021/07/09 15:04:01;;;;;;;11.87;7.73;;;;;;;33.53;39.35;100081.18;1766009;78;27338;-68
2021/07/09 15:06:27;;;;;;;8.93;8.13;;;;;;;33.33;39.39;100071.30;1767533;79;25939;-71
2021/07/09 15:08:54;;;;;;;12.58;8.15;;;;;;;33.16;39.92;100068.71;1774259;78;25781;-71
2021/07/09 15:11:20;;;;;;;10.10;8.08;;;;;;;33.01;39.93;100051.11;1767198;79;25843;-71
2021/07/09 15:13:47;;;;;;;10.75;8.45;;;;;;;32.88;39.89;100047.72;1743766;79;25892;-73
2021/07/09 15:16:13;;;;;;;8.55;7.65;;;;;;;32.71;40.04;100046.67;1748514;79;27891;-73
2021/07/09 15:18:40;;;;;;;9.68;8.23;;;;;;;32.60;40.30;100044.16;1773577;79;26668;-72
2021/07/09 15:21:08;;;;;;;10.78;8.48;;;;;;;32.49;40.47;100046.81;1748583;79;25855;-71
2021/07/09 15:23:34;;;;;;;11.53;7.73;;;;;;;32.40;40.68;100050.98;1770413;79;25894;-70
2021/07/09 15:26:01;;;;;;;14.00;8.48;;;;;;;32.32;40.94;100058.93;1764898;79;25738;-69
2021/07/09 15:28:27;;;;;;;10.13;8.10;;;;;;;32.26;41.13;100064.98;1733998;79;27368;-70
2021/07/09 15:30:54;;;;;;;11.63;8.65;;;;;;;32.20;41.27;100057.06;1710846;81;27289;-67
2021/07/09 15:33:20;;;;;;;14.50;8.93;;;;;;;32.13;41.40;100055.94;1751777;80;25776;-69
2021/07/09 15:35:47;;;;;;;10.40;8.88;;;;;;;32.07;41.46;100071.80;1733015;80;26819;-69
2021/07/09 15:38:13;;;;;;;21.05;8.83;;;;;;;32.00;41.67;100068.64;1759742;80;25912;-74
2021/07/09 15:40:41;;;;;;;11.75;8.93;;;;;;;31.96;42.02;100062.41;1753831;79;27344;-67
2021/07/09 15:43:07;;;;;;;13.00;9.03;;;;;;;31.92;42.24;100070.17;1731985;80;25828;-67
2021/07/09 15:45:34;;;;;;;13.40;9.33;;;;;;;31.89;42.43;100080.87;1744945;79;25808;-67
2021/07/09 15:48:00;;;;;;;13.13;8.95;;;;;;;31.84;42.47;100085.05;1734357;80;28275;-68
2021/07/09 15:50:27;;;;;;;11.93;8.25;;;;;;;31.81;42.76;100095.78;1759873;79;26621;-68
2021/07/09 15:52:53;;;;;;;9.90;8.53;;;;;;;31.78;42.80;100103.69;1753915;80;27316;-68
2021/07/09 15:55:20;;;;;;;11.30;7.55;;;;;;;31.74;43.25;100128.20;1745783;79;25939;-68
2021/07/09 15:57:48;;;;;;;18.48;5.90;;;;;;;31.68;42.69;100160.17;1741939;79;25978;-69
2021/07/09 16:00:16;;;;;;;12.82;5.08;;;;;;;31.22;41.06;100177.41;1742320;80;26395;-68
2021/07/09 16:02:43;;;;;;;12.33;3.75;;;;;;;30.67;41.19;100193.05;1755149;79;25737;-68
2021/07/09 16:05:11;;;;;;;9.93;3.62;;;;;;;30.06;41.48;100203.98;1689809;82;27319;-70